sensor_id;sensor_type;location;lat;lon;timestamp;temperature;humidity
10566;DHT22;5331;48.148;16.326;2023-07-20T00:02:02;22.80;1.00
10566;DHT22;5331;48.148;16.326;2023-07-20T00:04:30;22.70;1.00
10566;DHT22;5331;48.148;16.326;2023-07-20T00:06:57;22.70;1.00
10566;DHT22;5331;48.148;16.326;2023-07-20T00:09:27;22.60;1.00
10566;DHT22;5331;48.148;16.326;2023-07-20T00:11:54;22.50;1.00
10566;DHT22;5331;48.148;16.326;2023-07-20T00:14:21;22.50;1.00
10566;DHT22;5331;48.148;16.326;2023-07-20T00:16:50;22.40;1.00
10566;DHT22;5331;48.148;16.326;2023-07-20T00:19:21;22.30;1.00
10566;DHT22;5331;48.148;16.326;2023-07-20T00:21:48;22.20;1.00
10566;DHT22;5331;48.148;16.326;2023-07-20T00:24:15;22.20;1.00
10566;DHT22;5331;48.148;16.326;2023-07-20T00:26:44;22.10;1.00
10566;DHT22;5331;48.148;16.326;2023-07-20T00:29:11;22.10;1.00
10566;DHT22;5331;48.148;16.326;2023-07-20T00:31:38;22.00;1.00
10566;DHT22;5331;48.148;16.326;2023-07-20T00:34:05;22.00;1.00
10566;DHT22;5331;48.148;16.326;2023-07-20T00:36:32;21.90;1.00
10566;DHT22;5331;48.148;16.326;2023-07-20T00:38:58;21.90;1.00
10566;DHT22;5331;48.148;16.326;2023-07-20T00:41:25;21.90;1.00
10566;DHT22;5331;48.148;16.326;2023-07-20T00:43:56;21.90;1.00
10566;DHT22;5331;48.148;16.326;2023-07-20T00:46:23;22.00;1.00
10566;DHT22;5331;48.148;16.326;2023-07-20T00:48:51;22.10;1.00
10566;DHT22;5331;48.148;16.326;2023-07-20T00:51:19;22.20;1.00
10566;DHT22;5331;48.148;16.326;2023-07-20T00:53:47;22.40;1.00
10566;DHT22;5331;48.148;16.326;2023-07-20T00:56:14;22.50;1.00
10566;DHT22;5331;48.148;16.326;2023-07-20T00:58:41;22.50;1.00
10566;DHT22;5331;48.148;16.326;2023-07-20T01:01:10;22.60;1.00
10566;DHT22;5331;48.148;16.326;2023-07-20T01:03:37;22.70;1.00
10566;DHT22;5331;48.148;16.326;2023-07-20T01:06:10;22.80;1.00
10566;DHT22;5331;48.148;16.326;2023-07-20T01:08:43;22.80;1.00
10566;DHT22;5331;48.148;16.326;2023-07-20T01:11:17;23.00;1.00
10566;DHT22;5331;48.148;16.326;2023-07-20T01:13:45;23.10;1.00
10566;DHT22;5331;48.148;16.326;2023-07-20T01:16:14;23.10;1.00
10566;DHT22;5331;48.148;16.326;2023-07-20T01:18:41;23.10;1.00
10566;DHT22;5331;48.148;16.326;2023-07-20T01:21:12;23.10;1.00
10566;DHT22;5331;48.148;16.326;2023-07-20T01:30:36;23.10;1.00
10566;DHT22;5331;48.148;16.326;2023-07-20T01:33:09;23.20;1.00
10566;DHT22;5331;48.148;16.326;2023-07-20T01:35:38;23.30;1.00
10566;DHT22;5331;48.148;16.326;2023-07-20T01:38:09;23.30;1.00
10566;DHT22;5331;48.148;16.326;2023-07-20T01:40:36;23.30;1.00
10566;DHT22;5331;48.148;16.326;2023-07-20T01:43:04;23.40;1.00
10566;DHT22;5331;48.148;16.326;2023-07-20T01:45:30;23.30;1.00
10566;DHT22;5331;48.148;16.326;2023-07-20T01:47:57;23.30;1.00
10566;DHT22;5331;48.148;16.326;2023-07-20T01:50:26;23.30;1.00
10566;DHT22;5331;48.148;16.326;2023-07-20T01:52:53;23.20;1.00
10566;DHT22;5331;48.148;16.326;2023-07-20T01:55:19;23.10;1.00
10566;DHT22;5331;48.148;16.326;2023-07-20T01:57:46;23.10;1.00
10566;DHT22;5331;48.148;16.326;2023-07-20T02:00:14;23.00;1.00
10566;DHT22;5331;48.148;16.326;2023-07-20T02:02:41;23.00;1.00
10566;DHT22;5331;48.148;16.326;2023-07-20T02:05:08;22.90;1.00
10566;DHT22;5331;48.148;16.326;2023-07-20T02:07:36;22.80;1.00
10566;DHT22;5331;48.148;16.326;2023-07-20T02:10:04;22.80;1.00
10566;DHT22;5331;48.148;16.326;2023-07-20T02:12:31;22.80;1.00
10566;DHT22;5331;48.148;16.326;2023-07-20T02:14:58;22.70;1.00
10566;DHT22;5331;48.148;16.326;2023-07-20T02:17:25;22.70;1.00
10566;DHT22;5331;48.148;16.326;2023-07-20T02:19:52;22.70;1.00
10566;DHT22;5331;48.148;16.326;2023-07-20T02:22:20;22.70;1.00
10566;DHT22;5331;48.148;16.326;2023-07-20T02:24:48;22.60;1.00
10566;DHT22;5331;48.148;16.326;2023-07-20T02:27:15;22.60;1.00
10566;DHT22;5331;48.148;16.326;2023-07-20T02:29:42;22.60;1.00
10566;DHT22;5331;48.148;16.326;2023-07-20T02:32:09;22.60;1.00
10566;DHT22;5331;48.148;16.326;2023-07-20T02:34:36;22.60;1.00
10566;DHT22;5331;48.148;16.326;2023-07-20T02:37:04;22.60;1.00
10566;DHT22;5331;48.148;16.326;2023-07-20T02:39:31;22.50;1.00
10566;DHT22;5331;48.148;16.326;2023-07-20T02:41:59;22.60;1.00
10566;DHT22;5331;48.148;16.326;2023-07-20T02:44:26;22.60;1.00
10566;DHT22;5331;48.148;16.326;2023-07-20T02:46:53;22.50;1.00
10566;DHT22;5331;48.148;16.326;2023-07-20T02:49:20;22.60;1.00
10566;DHT22;5331;48.148;16.326;2023-07-20T02:51:47;22.50;1.00
10566;DHT22;5331;48.148;16.326;2023-07-20T02:54:14;22.50;1.00
10566;DHT22;5331;48.148;16.326;2023-07-20T02:56:41;22.40;1.00
10566;DHT22;5331;48.148;16.326;2023-07-20T02:59:09;22.40;1.00
10566;DHT22;5331;48.148;16.326;2023-07-20T03:01:36;22.40;1.00
10566;DHT22;5331;48.148;16.326;2023-07-20T03:04:03;22.40;1.00
10566;DHT22;5331;48.148;16.326;2023-07-20T03:06:30;22.40;1.00
10566;DHT22;5331;48.148;16.326;2023-07-20T03:09:01;22.30;1.00
10566;DHT22;5331;48.148;16.326;2023-07-20T03:11:29;22.30;1.00
10566;DHT22;5331;48.148;16.326;2023-07-20T03:13:56;22.30;1.00
10566;DHT22;5331;48.148;16.326;2023-07-20T03:16:24;22.30;1.00
10566;DHT22;5331;48.148;16.326;2023-07-20T03:18:52;22.30;1.00
10566;DHT22;5331;48.148;16.326;2023-07-20T03:21:19;22.20;1.00
10566;DHT22;5331;48.148;16.326;2023-07-20T03:23:46;22.30;1.00
10566;DHT22;5331;48.148;16.326;2023-07-20T03:26:12;22.20;1.00
10566;DHT22;5331;48.148;16.326;2023-07-20T03:28:40;22.20;1.00
10566;DHT22;5331;48.148;16.326;2023-07-20T03:31:07;22.20;1.00
10566;DHT22;5331;48.148;16.326;2023-07-20T03:33:36;22.20;1.00
10566;DHT22;5331;48.148;16.326;2023-07-20T03:36:03;22.20;1.00
10566;DHT22;5331;48.148;16.326;2023-07-20T03:38:30;22.10;1.00
10566;DHT22;5331;48.148;16.326;2023-07-20T03:40:59;22.20;1.00
10566;DHT22;5331;48.148;16.326;2023-07-20T03:43:28;22.20;1.00
10566;DHT22;5331;48.148;16.326;2023-07-20T03:45:55;22.30;1.00
10566;DHT22;5331;48.148;16.326;2023-07-20T03:48:23;22.30;1.00
10566;DHT22;5331;48.148;16.326;2023-07-20T03:50:53;22.20;1.00
10566;DHT22;5331;48.148;16.326;2023-07-20T03:53:20;22.30;1.00
10566;DHT22;5331;48.148;16.326;2023-07-20T03:55:48;22.30;1.00
10566;DHT22;5331;48.148;16.326;2023-07-20T03:58:15;22.30;1.00
10566;DHT22;5331;48.148;16.326;2023-07-20T04:00:45;22.30;1.00
10566;DHT22;5331;48.148;16.326;2023-07-20T04:03:12;22.30;1.00
10566;DHT22;5331;48.148;16.326;2023-07-20T04:05:39;22.30;1.00
10566;DHT22;5331;48.148;16.326;2023-07-20T04:08:07;22.30;1.00
10566;DHT22;5331;48.148;16.326;2023-07-20T04:10:34;22.30;1.00
10566;DHT22;5331;48.148;16.326;2023-07-20T04:13:01;22.30;1.00
10566;DHT22;5331;48.148;16.326;2023-07-20T04:15:28;22.40;1.00
10566;DHT22;5331;48.148;16.326;2023-07-20T04:17:56;22.40;1.00
10566;DHT22;5331;48.148;16.326;2023-07-20T04:20:23;22.30;1.00
10566;DHT22;5331;48.148;16.326;2023-07-20T04:22:50;22.30;1.00
10566;DHT22;5331;48.148;16.326;2023-07-20T04:25:18;22.40;1.00
10566;DHT22;5331;48.148;16.326;2023-07-20T04:27:45;22.40;1.00
10566;DHT22;5331;48.148;16.326;2023-07-20T04:30:12;22.40;1.00
10566;DHT22;5331;48.148;16.326;2023-07-20T04:32:41;22.60;1.00
10566;DHT22;5331;48.148;16.326;2023-07-20T04:35:09;22.50;1.00
10566;DHT22;5331;48.148;16.326;2023-07-20T04:37:36;22.50;1.00
10566;DHT22;5331;48.148;16.326;2023-07-20T04:40:04;22.60;1.00
10566;DHT22;5331;48.148;16.326;2023-07-20T04:42:33;22.60;1.00
10566;DHT22;5331;48.148;16.326;2023-07-20T04:44:59;22.60;1.00
10566;DHT22;5331;48.148;16.326;2023-07-20T04:47:26;22.60;1.00
10566;DHT22;5331;48.148;16.326;2023-07-20T04:49:53;22.60;1.00
10566;DHT22;5331;48.148;16.326;2023-07-20T04:52:20;22.60;1.00
10566;DHT22;5331;48.148;16.326;2023-07-20T04:54:47;22.60;1.00
10566;DHT22;5331;48.148;16.326;2023-07-20T04:57:14;22.60;1.00
10566;DHT22;5331;48.148;16.326;2023-07-20T04:59:42;22.60;1.00
10566;DHT22;5331;48.148;16.326;2023-07-20T05:02:09;22.60;1.00
10566;DHT22;5331;48.148;16.326;2023-07-20T05:04:36;22.70;1.00
10566;DHT22;5331;48.148;16.326;2023-07-20T05:07:03;22.60;1.00
10566;DHT22;5331;48.148;16.326;2023-07-20T05:09:30;22.60;1.00
10566;DHT22;5331;48.148;16.326;2023-07-20T05:11:57;22.60;1.00
10566;DHT22;5331;48.148;16.326;2023-07-20T05:14:24;22.70;1.00
10566;DHT22;5331;48.148;16.326;2023-07-20T05:16:52;22.60;1.00
10566;DHT22;5331;48.148;16.326;2023-07-20T05:19:19;22.70;1.00
10566;DHT22;5331;48.148;16.326;2023-07-20T05:21:45;22.70;1.00
10566;DHT22;5331;48.148;16.326;2023-07-20T05:24:12;22.70;1.00
10566;DHT22;5331;48.148;16.326;2023-07-20T05:26:39;22.80;1.00
10566;DHT22;5331;48.148;16.326;2023-07-20T05:29:06;22.80;1.00
10566;DHT22;5331;48.148;16.326;2023-07-20T05:31:33;22.80;1.00
10566;DHT22;5331;48.148;16.326;2023-07-20T05:34:02;22.80;1.00
10566;DHT22;5331;48.148;16.326;2023-07-20T05:36:29;22.80;1.00
10566;DHT22;5331;48.148;16.326;2023-07-20T05:38:56;22.80;1.00
10566;DHT22;5331;48.148;16.326;2023-07-20T05:41:23;22.90;1.00
10566;DHT22;5331;48.148;16.326;2023-07-20T05:43:50;23.10;1.00
10566;DHT22;5331;48.148;16.326;2023-07-20T05:46:17;23.20;1.00
10566;DHT22;5331;48.148;16.326;2023-07-20T05:48:44;23.30;1.00
10566;DHT22;5331;48.148;16.326;2023-07-20T05:51:12;23.50;1.00
10566;DHT22;5331;48.148;16.326;2023-07-20T05:53:39;23.60;1.00
10566;DHT22;5331;48.148;16.326;2023-07-20T05:56:06;23.60;1.00
10566;DHT22;5331;48.148;16.326;2023-07-20T05:58:36;23.60;1.00
10566;DHT22;5331;48.148;16.326;2023-07-20T06:01:04;23.60;1.00
10566;DHT22;5331;48.148;16.326;2023-07-20T06:03:34;23.70;1.00
10566;DHT22;5331;48.148;16.326;2023-07-20T06:06:03;23.70;1.00
10566;DHT22;5331;48.148;16.326;2023-07-20T06:08:32;23.80;1.00
10566;DHT22;5331;48.148;16.326;2023-07-20T06:11:00;24.10;1.00
10566;DHT22;5331;48.148;16.326;2023-07-20T06:13:26;24.30;1.00
10566;DHT22;5331;48.148;16.326;2023-07-20T06:15:53;24.90;1.00
10566;DHT22;5331;48.148;16.326;2023-07-20T06:18:22;25.00;1.00
10566;DHT22;5331;48.148;16.326;2023-07-20T06:20:49;25.30;1.00
10566;DHT22;5331;48.148;16.326;2023-07-20T06:23:17;25.90;1.00
10566;DHT22;5331;48.148;16.326;2023-07-20T06:25:45;26.10;1.00
10566;DHT22;5331;48.148;16.326;2023-07-20T06:28:13;26.10;1.00
10566;DHT22;5331;48.148;16.326;2023-07-20T06:30:40;26.30;1.00
10566;DHT22;5331;48.148;16.326;2023-07-20T06:33:07;26.60;1.00
10566;DHT22;5331;48.148;16.326;2023-07-20T06:35:34;26.80;1.00
10566;DHT22;5331;48.148;16.326;2023-07-20T06:38:01;27.20;1.00
10566;DHT22;5331;48.148;16.326;2023-07-20T06:40:30;27.40;1.00
10566;DHT22;5331;48.148;16.326;2023-07-20T06:42:58;27.50;1.00
10566;DHT22;5331;48.148;16.326;2023-07-20T06:45:25;27.60;1.00
10566;DHT22;5331;48.148;16.326;2023-07-20T06:47:52;27.50;1.00
10566;DHT22;5331;48.148;16.326;2023-07-20T06:50:19;27.70;1.00
10566;DHT22;5331;48.148;16.326;2023-07-20T06:52:47;27.90;1.00
10566;DHT22;5331;48.148;16.326;2023-07-20T06:55:14;28.30;1.00
10566;DHT22;5331;48.148;16.326;2023-07-20T06:57:41;28.50;1.00
10566;DHT22;5331;48.148;16.326;2023-07-20T07:00:11;28.70;1.00
10566;DHT22;5331;48.148;16.326;2023-07-20T07:02:38;28.70;1.00
10566;DHT22;5331;48.148;16.326;2023-07-20T07:05:05;29.00;1.00
10566;DHT22;5331;48.148;16.326;2023-07-20T07:07:32;28.90;1.00
10566;DHT22;5331;48.148;16.326;2023-07-20T07:10:00;29.00;1.00
10566;DHT22;5331;48.148;16.326;2023-07-20T07:12:29;28.80;1.00
10566;DHT22;5331;48.148;16.326;2023-07-20T07:14:56;28.00;1.00
10566;DHT22;5331;48.148;16.326;2023-07-20T07:17:25;28.20;1.00
10566;DHT22;5331;48.148;16.326;2023-07-20T07:19:52;28.40;1.00
10566;DHT22;5331;48.148;16.326;2023-07-20T07:22:20;28.60;1.00
10566;DHT22;5331;48.148;16.326;2023-07-20T07:24:47;28.50;1.00
10566;DHT22;5331;48.148;16.326;2023-07-20T07:27:14;28.80;1.00
10566;DHT22;5331;48.148;16.326;2023-07-20T07:29:42;29.10;1.00
10566;DHT22;5331;48.148;16.326;2023-07-20T07:32:10;29.00;1.00
10566;DHT22;5331;48.148;16.326;2023-07-20T07:34:38;29.10;1.00
10566;DHT22;5331;48.148;16.326;2023-07-20T07:37:05;29.60;1.00
10566;DHT22;5331;48.148;16.326;2023-07-20T07:39:33;30.00;1.00
10566;DHT22;5331;48.148;16.326;2023-07-20T07:42:01;30.10;1.00
10566;DHT22;5331;48.148;16.326;2023-07-20T07:44:28;29.30;1.00
10566;DHT22;5331;48.148;16.326;2023-07-20T07:46:55;28.70;1.00
10566;DHT22;5331;48.148;16.326;2023-07-20T07:49:21;28.60;1.00
10566;DHT22;5331;48.148;16.326;2023-07-20T07:51:50;28.20;1.00
10566;DHT22;5331;48.148;16.326;2023-07-20T07:54:17;28.40;1.00
10566;DHT22;5331;48.148;16.326;2023-07-20T07:56:44;28.40;1.00
10566;DHT22;5331;48.148;16.326;2023-07-20T07:59:11;27.80;1.00
10566;DHT22;5331;48.148;16.326;2023-07-20T08:01:38;27.50;1.00
10566;DHT22;5331;48.148;16.326;2023-07-20T08:04:05;28.00;1.00
10566;DHT22;5331;48.148;16.326;2023-07-20T08:06:32;27.90;1.00
10566;DHT22;5331;48.148;16.326;2023-07-20T08:09:00;27.70;1.00
10566;DHT22;5331;48.148;16.326;2023-07-20T08:11:30;27.50;1.00
10566;DHT22;5331;48.148;16.326;2023-07-20T08:13:59;27.30;1.00
10566;DHT22;5331;48.148;16.326;2023-07-20T08:16:26;27.10;1.00
10566;DHT22;5331;48.148;16.326;2023-07-20T08:18:53;27.10;1.00
10566;DHT22;5331;48.148;16.326;2023-07-20T08:21:20;27.00;1.00
10566;DHT22;5331;48.148;16.326;2023-07-20T08:23:47;27.30;1.00
10566;DHT22;5331;48.148;16.326;2023-07-20T08:26:15;28.00;1.00
10566;DHT22;5331;48.148;16.326;2023-07-20T08:28:44;28.60;1.00
10566;DHT22;5331;48.148;16.326;2023-07-20T08:31:14;29.00;1.00
10566;DHT22;5331;48.148;16.326;2023-07-20T08:33:40;29.30;1.00
10566;DHT22;5331;48.148;16.326;2023-07-20T08:36:08;29.30;1.00
10566;DHT22;5331;48.148;16.326;2023-07-20T08:38:35;28.90;1.00
10566;DHT22;5331;48.148;16.326;2023-07-20T08:41:02;28.50;1.00
10566;DHT22;5331;48.148;16.326;2023-07-20T08:43:31;28.20;1.00
10566;DHT22;5331;48.148;16.326;2023-07-20T08:46:00;28.20;1.00
10566;DHT22;5331;48.148;16.326;2023-07-20T08:48:28;28.20;1.00
10566;DHT22;5331;48.148;16.326;2023-07-20T08:50:56;28.00;1.00
10566;DHT22;5331;48.148;16.326;2023-07-20T08:53:25;28.00;1.00
10566;DHT22;5331;48.148;16.326;2023-07-20T08:55:55;28.30;1.00
10566;DHT22;5331;48.148;16.326;2023-07-20T08:58:24;28.30;1.00
10566;DHT22;5331;48.148;16.326;2023-07-20T09:00:54;28.60;1.00
10566;DHT22;5331;48.148;16.326;2023-07-20T09:03:21;28.90;1.00
10566;DHT22;5331;48.148;16.326;2023-07-20T09:05:48;29.40;1.00
10566;DHT22;5331;48.148;16.326;2023-07-20T09:08:16;29.40;1.00
10566;DHT22;5331;48.148;16.326;2023-07-20T09:10:43;29.60;1.00
10566;DHT22;5331;48.148;16.326;2023-07-20T09:13:14;30.00;1.00
10566;DHT22;5331;48.148;16.326;2023-07-20T09:15:45;30.40;1.00
10566;DHT22;5331;48.148;16.326;2023-07-20T09:18:23;30.50;1.00
10566;DHT22;5331;48.148;16.326;2023-07-20T09:20:50;30.80;1.00
10566;DHT22;5331;48.148;16.326;2023-07-20T09:23:17;30.90;1.00
10566;DHT22;5331;48.148;16.326;2023-07-20T09:25:44;30.70;1.00
10566;DHT22;5331;48.148;16.326;2023-07-20T09:28:16;30.70;1.00
10566;DHT22;5331;48.148;16.326;2023-07-20T09:30:43;30.30;1.00
10566;DHT22;5331;48.148;16.326;2023-07-20T09:33:21;30.10;1.00
10566;DHT22;5331;48.148;16.326;2023-07-20T09:35:48;29.40;1.00
10566;DHT22;5331;48.148;16.326;2023-07-20T09:38:15;29.40;1.00
10566;DHT22;5331;48.148;16.326;2023-07-20T09:40:42;29.30;1.00
10566;DHT22;5331;48.148;16.326;2023-07-20T09:43:09;29.40;1.00
10566;DHT22;5331;48.148;16.326;2023-07-20T09:45:40;29.40;1.00
10566;DHT22;5331;48.148;16.326;2023-07-20T09:48:08;29.30;1.00
10566;DHT22;5331;48.148;16.326;2023-07-20T09:50:41;29.10;1.00
10566;DHT22;5331;48.148;16.326;2023-07-20T09:53:11;28.90;1.00
10566;DHT22;5331;48.148;16.326;2023-07-20T09:55:40;28.70;1.00
10566;DHT22;5331;48.148;16.326;2023-07-20T09:58:08;28.30;1.00
10566;DHT22;5331;48.148;16.326;2023-07-20T10:00:37;28.00;1.00
10566;DHT22;5331;48.148;16.326;2023-07-20T10:03:05;28.00;1.00
10566;DHT22;5331;48.148;16.326;2023-07-20T10:05:33;28.40;1.00
10566;DHT22;5331;48.148;16.326;2023-07-20T10:08:03;29.10;1.00
10566;DHT22;5331;48.148;16.326;2023-07-20T10:10:31;29.60;1.00
10566;DHT22;5331;48.148;16.326;2023-07-20T10:13:01;30.20;1.00
10566;DHT22;5331;48.148;16.326;2023-07-20T10:15:33;30.20;1.00
10566;DHT22;5331;48.148;16.326;2023-07-20T10:18:07;30.20;1.00
10566;DHT22;5331;48.148;16.326;2023-07-20T10:20:36;30.30;1.00
10566;DHT22;5331;48.148;16.326;2023-07-20T10:23:08;30.00;1.00
10566;DHT22;5331;48.148;16.326;2023-07-20T10:25:35;29.40;1.00
10566;DHT22;5331;48.148;16.326;2023-07-20T10:28:05;29.60;1.00
10566;DHT22;5331;48.148;16.326;2023-07-20T10:30:33;29.80;1.00
10566;DHT22;5331;48.148;16.326;2023-07-20T10:33:01;29.90;1.00
10566;DHT22;5331;48.148;16.326;2023-07-20T10:35:29;30.10;1.00
10566;DHT22;5331;48.148;16.326;2023-07-20T10:38:01;30.10;1.00
10566;DHT22;5331;48.148;16.326;2023-07-20T10:40:33;30.20;1.00
10566;DHT22;5331;48.148;16.326;2023-07-20T10:43:02;30.10;1.00
10566;DHT22;5331;48.148;16.326;2023-07-20T10:45:42;29.90;1.00
10566;DHT22;5331;48.148;16.326;2023-07-20T10:48:17;30.20;1.00
10566;DHT22;5331;48.148;16.326;2023-07-20T10:50:45;30.30;1.00
10566;DHT22;5331;48.148;16.326;2023-07-20T10:53:14;30.30;1.00
10566;DHT22;5331;48.148;16.326;2023-07-20T10:55:43;30.30;1.00
10566;DHT22;5331;48.148;16.326;2023-07-20T10:58:13;30.10;1.00
10566;DHT22;5331;48.148;16.326;2023-07-20T11:01:01;30.00;1.00
10566;DHT22;5331;48.148;16.326;2023-07-20T11:03:32;30.00;1.00
10566;DHT22;5331;48.148;16.326;2023-07-20T11:08:41;30.10;1.00
10566;DHT22;5331;48.148;16.326;2023-07-20T11:11:23;30.30;1.00
10566;DHT22;5331;48.148;16.326;2023-07-20T11:13:57;30.50;1.00
10566;DHT22;5331;48.148;16.326;2023-07-20T11:16:39;30.70;1.00
10566;DHT22;5331;48.148;16.326;2023-07-20T11:19:16;30.90;1.00
10566;DHT22;5331;48.148;16.326;2023-07-20T11:21:44;30.90;1.00
10566;DHT22;5331;48.148;16.326;2023-07-20T11:24:11;30.90;1.00
10566;DHT22;5331;48.148;16.326;2023-07-20T11:26:45;30.50;1.00
10566;DHT22;5331;48.148;16.326;2023-07-20T11:29:12;30.50;1.00
10566;DHT22;5331;48.148;16.326;2023-07-20T11:31:40;30.50;1.00
10566;DHT22;5331;48.148;16.326;2023-07-20T11:34:09;30.50;1.00
10566;DHT22;5331;48.148;16.326;2023-07-20T11:36:36;30.50;1.00
10566;DHT22;5331;48.148;16.326;2023-07-20T11:39:04;30.40;1.00
10566;DHT22;5331;48.148;16.326;2023-07-20T11:41:33;30.40;1.00
10566;DHT22;5331;48.148;16.326;2023-07-20T11:44:02;30.60;1.00
10566;DHT22;5331;48.148;16.326;2023-07-20T11:46:29;30.60;1.00
10566;DHT22;5331;48.148;16.326;2023-07-20T11:48:57;30.80;1.00
10566;DHT22;5331;48.148;16.326;2023-07-20T11:51:26;30.90;1.00
10566;DHT22;5331;48.148;16.326;2023-07-20T11:53:53;30.60;1.00
10566;DHT22;5331;48.148;16.326;2023-07-20T11:56:20;30.70;1.00
10566;DHT22;5331;48.148;16.326;2023-07-20T11:58:47;30.80;1.00
10566;DHT22;5331;48.148;16.326;2023-07-20T12:01:17;30.80;1.00
10566;DHT22;5331;48.148;16.326;2023-07-20T12:03:47;30.60;1.00
10566;DHT22;5331;48.148;16.326;2023-07-20T12:06:14;30.60;1.00
10566;DHT22;5331;48.148;16.326;2023-07-20T12:08:42;30.60;1.00
10566;DHT22;5331;48.148;16.326;2023-07-20T12:11:10;30.60;1.00
10566;DHT22;5331;48.148;16.326;2023-07-20T12:13:38;30.60;1.00
10566;DHT22;5331;48.148;16.326;2023-07-20T12:16:11;30.60;1.00
10566;DHT22;5331;48.148;16.326;2023-07-20T12:18:42;30.70;1.00
10566;DHT22;5331;48.148;16.326;2023-07-20T12:21:10;30.90;1.00
10566;DHT22;5331;48.148;16.326;2023-07-20T12:23:38;30.80;1.00
10566;DHT22;5331;48.148;16.326;2023-07-20T12:26:09;31.00;1.00
10566;DHT22;5331;48.148;16.326;2023-07-20T12:28:39;31.00;1.00
10566;DHT22;5331;48.148;16.326;2023-07-20T12:31:07;30.90;1.00
10566;DHT22;5331;48.148;16.326;2023-07-20T12:33:35;30.80;1.00
10566;DHT22;5331;48.148;16.326;2023-07-20T12:36:04;30.40;1.00
10566;DHT22;5331;48.148;16.326;2023-07-20T12:38:31;30.50;1.00
10566;DHT22;5331;48.148;16.326;2023-07-20T12:41:00;30.60;1.00
10566;DHT22;5331;48.148;16.326;2023-07-20T12:43:27;30.60;1.00
10566;DHT22;5331;48.148;16.326;2023-07-20T12:45:55;30.60;1.00
10566;DHT22;5331;48.148;16.326;2023-07-20T12:48:22;30.60;1.00
10566;DHT22;5331;48.148;16.326;2023-07-20T12:50:49;30.50;1.00
10566;DHT22;5331;48.148;16.326;2023-07-20T12:53:17;30.60;1.00
10566;DHT22;5331;48.148;16.326;2023-07-20T12:55:44;30.60;1.00
10566;DHT22;5331;48.148;16.326;2023-07-20T12:58:12;30.50;1.00
10566;DHT22;5331;48.148;16.326;2023-07-20T13:00:39;30.40;1.00
10566;DHT22;5331;48.148;16.326;2023-07-20T13:03:06;30.50;1.00
10566;DHT22;5331;48.148;16.326;2023-07-20T13:05:34;30.50;1.00
10566;DHT22;5331;48.148;16.326;2023-07-20T13:08:01;30.60;1.00
10566;DHT22;5331;48.148;16.326;2023-07-20T13:10:30;30.70;1.00
10566;DHT22;5331;48.148;16.326;2023-07-20T13:12:57;30.80;1.00
10566;DHT22;5331;48.148;16.326;2023-07-20T13:15:29;30.80;1.00
10566;DHT22;5331;48.148;16.326;2023-07-20T13:17:57;30.80;1.00
10566;DHT22;5331;48.148;16.326;2023-07-20T13:20:24;30.90;1.00
10566;DHT22;5331;48.148;16.326;2023-07-20T13:22:51;30.70;1.00
10566;DHT22;5331;48.148;16.326;2023-07-20T13:25:18;30.70;1.00
10566;DHT22;5331;48.148;16.326;2023-07-20T13:27:47;30.60;1.00
10566;DHT22;5331;48.148;16.326;2023-07-20T13:30:14;30.60;1.00
10566;DHT22;5331;48.148;16.326;2023-07-20T13:32:43;30.60;1.00
10566;DHT22;5331;48.148;16.326;2023-07-20T13:35:10;30.70;1.00
10566;DHT22;5331;48.148;16.326;2023-07-20T13:37:37;30.70;1.00
10566;DHT22;5331;48.148;16.326;2023-07-20T13:40:05;30.80;1.00
10566;DHT22;5331;48.148;16.326;2023-07-20T13:42:34;30.70;1.00
10566;DHT22;5331;48.148;16.326;2023-07-20T13:45:03;30.70;1.00
10566;DHT22;5331;48.148;16.326;2023-07-20T13:47:30;30.60;1.00
10566;DHT22;5331;48.148;16.326;2023-07-20T13:49:58;30.60;1.00
10566;DHT22;5331;48.148;16.326;2023-07-20T13:52:25;30.50;1.00
10566;DHT22;5331;48.148;16.326;2023-07-20T13:54:51;30.50;1.00
10566;DHT22;5331;48.148;16.326;2023-07-20T13:57:18;30.50;1.00
10566;DHT22;5331;48.148;16.326;2023-07-20T13:59:45;30.50;1.00
10566;DHT22;5331;48.148;16.326;2023-07-20T14:02:16;30.60;1.00
10566;DHT22;5331;48.148;16.326;2023-07-20T14:04:43;30.60;1.00
10566;DHT22;5331;48.148;16.326;2023-07-20T14:07:10;30.40;1.00
10566;DHT22;5331;48.148;16.326;2023-07-20T14:09:38;30.40;1.00
10566;DHT22;5331;48.148;16.326;2023-07-20T14:12:06;30.40;1.00
10566;DHT22;5331;48.148;16.326;2023-07-20T14:14:33;30.40;1.00
10566;DHT22;5331;48.148;16.326;2023-07-20T14:17:00;30.40;1.00
10566;DHT22;5331;48.148;16.326;2023-07-20T14:19:29;30.50;1.00
10566;DHT22;5331;48.148;16.326;2023-07-20T14:21:55;30.60;1.00
10566;DHT22;5331;48.148;16.326;2023-07-20T14:24:25;30.70;1.00
10566;DHT22;5331;48.148;16.326;2023-07-20T14:26:52;30.90;1.00
10566;DHT22;5331;48.148;16.326;2023-07-20T14:29:20;30.90;1.00
10566;DHT22;5331;48.148;16.326;2023-07-20T14:31:47;30.90;1.00
10566;DHT22;5331;48.148;16.326;2023-07-20T14:34:16;30.60;1.00
10566;DHT22;5331;48.148;16.326;2023-07-20T14:36:45;30.60;1.00
10566;DHT22;5331;48.148;16.326;2023-07-20T14:39:12;30.40;1.00
10566;DHT22;5331;48.148;16.326;2023-07-20T14:41:39;30.30;1.00
10566;DHT22;5331;48.148;16.326;2023-07-20T14:44:06;30.30;1.00
10566;DHT22;5331;48.148;16.326;2023-07-20T14:46:33;30.30;1.00
10566;DHT22;5331;48.148;16.326;2023-07-20T14:49:00;30.30;1.00
10566;DHT22;5331;48.148;16.326;2023-07-20T14:51:28;30.30;1.00
10566;DHT22;5331;48.148;16.326;2023-07-20T14:54:00;30.40;1.00
10566;DHT22;5331;48.148;16.326;2023-07-20T14:56:27;30.30;1.00
10566;DHT22;5331;48.148;16.326;2023-07-20T14:58:54;30.30;1.00
10566;DHT22;5331;48.148;16.326;2023-07-20T15:01:21;30.40;1.00
10566;DHT22;5331;48.148;16.326;2023-07-20T15:03:48;30.30;1.00
10566;DHT22;5331;48.148;16.326;2023-07-20T15:06:18;30.10;1.00
10566;DHT22;5331;48.148;16.326;2023-07-20T15:08:46;29.90;1.00
10566;DHT22;5331;48.148;16.326;2023-07-20T15:11:14;29.90;1.00
10566;DHT22;5331;48.148;16.326;2023-07-20T15:13:41;29.70;1.00
10566;DHT22;5331;48.148;16.326;2023-07-20T15:16:08;29.90;1.00
10566;DHT22;5331;48.148;16.326;2023-07-20T15:18:36;29.90;1.00
10566;DHT22;5331;48.148;16.326;2023-07-20T15:21:03;30.00;1.00
10566;DHT22;5331;48.148;16.326;2023-07-20T15:23:30;29.90;1.00
10566;DHT22;5331;48.148;16.326;2023-07-20T15:25:57;29.90;1.00
10566;DHT22;5331;48.148;16.326;2023-07-20T15:28:25;29.90;1.00
10566;DHT22;5331;48.148;16.326;2023-07-20T15:30:59;29.80;1.00
10566;DHT22;5331;48.148;16.326;2023-07-20T15:33:27;29.70;1.00
10566;DHT22;5331;48.148;16.326;2023-07-20T15:35:53;29.60;1.00
10566;DHT22;5331;48.148;16.326;2023-07-20T15:38:20;29.60;1.00
10566;DHT22;5331;48.148;16.326;2023-07-20T15:40:47;29.60;1.00
10566;DHT22;5331;48.148;16.326;2023-07-20T15:43:15;29.70;1.00
10566;DHT22;5331;48.148;16.326;2023-07-20T15:45:47;29.70;1.00
10566;DHT22;5331;48.148;16.326;2023-07-20T15:48:15;29.50;1.00
10566;DHT22;5331;48.148;16.326;2023-07-20T15:50:42;29.30;1.00
10566;DHT22;5331;48.148;16.326;2023-07-20T15:53:09;29.10;1.00
10566;DHT22;5331;48.148;16.326;2023-07-20T15:55:36;29.00;1.00
10566;DHT22;5331;48.148;16.326;2023-07-20T15:58:03;29.10;1.00
10566;DHT22;5331;48.148;16.326;2023-07-20T16:00:30;29.00;1.00